Airport View

Enter AWOS ICAO identifier for current METAR.

ex. KFNL

KANQ 041425Z AUTO 09007KT 10SM CLR 27/19 A3004 RMK AO2

4 Jul 2020 14:17

Frequency: 118.175

Phone: 260-668-5630

Other Area AWOS: KC62 - KOEB - KIRS - KGWB

TAF KFWA 041120Z 0412/0512 07004KT P6SM FEW060 SCT250 FM050000 09004KT P6SM FEW250